createdAt,value
2019-02-15T00:00:13.888Z,13.88
2019-02-15T00:00:45.086Z,14.98
2019-02-15T00:01:16.307Z,14.33
2019-02-15T00:01:47.543Z,13.78
2019-02-15T00:02:18.745Z,15.65
2019-02-15T00:02:49.966Z,14.55
2019-02-15T00:03:21.176Z,15.85
2019-02-15T00:03:52.403Z,16.32
2019-02-15T00:04:23.631Z,15.15
2019-02-15T00:04:54.861Z,15.58
2019-02-15T00:05:26.061Z,15.85
2019-02-15T00:05:57.280Z,15.38
2019-02-15T00:06:28.487Z,17.10
2019-02-15T00:06:59.711Z,14.90
2019-02-15T00:07:31.419Z,16.30
2019-02-15T00:08:02.708Z,16.32
2019-02-15T00:08:33.935Z,15.53
2019-02-15T00:09:05.146Z,17.32
2019-02-15T00:09:36.364Z,19.77
2019-02-15T00:10:07.553Z,17.15
2019-02-15T00:10:38.756Z,17.23
2019-02-15T00:11:09.954Z,17.20
2019-02-15T00:11:41.513Z,19.57
2019-02-15T00:12:12.738Z,16.60
2019-02-15T00:12:43.958Z,18.92
2019-02-15T00:13:15.215Z,17.25
2019-02-15T00:13:46.433Z,17.70
2019-02-15T00:14:17.649Z,17.85
2019-02-15T00:14:48.854Z,19.82
2019-02-15T00:15:20.071Z,17.45
2019-02-15T00:15:51.331Z,18.35
2019-02-15T00:16:22.621Z,15.72
2019-02-15T00:16:53.835Z,18.05
2019-02-15T00:17:25.049Z,16.87
2019-02-15T00:17:56.282Z,17.07
2019-02-15T00:18:27.486Z,19.10
2019-02-15T00:18:58.713Z,16.60
2019-02-15T00:19:29.907Z,19.98
2019-02-15T00:20:01.118Z,18.07
2019-02-15T00:20:32.343Z,17.62
2019-02-15T00:21:03.543Z,17.27
2019-02-15T00:21:34.788Z,19.00
2019-02-15T00:22:06.185Z,17.35
2019-02-15T00:22:37.397Z,16.35
2019-02-15T00:23:09.671Z,17.60
2019-02-15T00:23:40.887Z,16.50
2019-02-15T00:24:12.101Z,18.40
2019-02-15T00:24:43.319Z,17.57
2019-02-15T00:25:14.531Z,17.82
2019-02-15T00:25:45.803Z,16.12
2019-02-15T00:26:17.048Z,17.05
2019-02-15T00:26:48.265Z,17.40
2019-02-15T00:27:19.460Z,17.92
2019-02-15T00:27:50.671Z,18.35
2019-02-15T00:28:21.900Z,16.07
2019-02-15T00:28:53.107Z,15.58
2019-02-15T00:29:24.368Z,16.90
2019-02-15T00:29:55.585Z,17.35
2019-02-15T00:30:26.799Z,15.75
2019-02-15T00:30:58.008Z,17.23
2019-02-15T00:31:29.243Z,17.67
2019-02-15T00:32:00.468Z,16.82
2019-02-15T00:32:31.679Z,16.82
2019-02-15T00:33:02.712Z,17.62
2019-02-15T00:33:33.919Z,16.85
2019-02-15T00:34:05.173Z,17.07
2019-02-15T00:34:36.416Z,16.42
2019-02-15T00:35:07.643Z,17.30
2019-02-15T00:35:38.889Z,18.73
2019-02-15T00:36:10.104Z,15.80
2019-02-15T00:36:41.351Z,15.93
2019-02-15T00:37:13.006Z,16.02
2019-02-15T00:37:44.146Z,16.50
2019-02-15T00:38:15.351Z,16.90
2019-02-15T00:38:46.591Z,16.50
2019-02-15T00:39:17.805Z,15.98
2019-02-15T00:39:49.067Z,15.98
2019-02-15T00:40:20.264Z,17.02
2019-02-15T00:40:51.475Z,15.53
2019-02-15T00:41:22.746Z,15.45
2019-02-15T00:41:53.958Z,16.67
2019-02-15T00:42:25.176Z,17.12
2019-02-15T00:42:56.409Z,16.07
2019-02-15T00:43:27.619Z,14.73
2019-02-15T00:43:58.844Z,15.43
2019-02-15T00:44:30.048Z,13.50
2019-02-15T00:45:01.299Z,16.60
2019-02-15T00:45:32.532Z,14.47
2019-02-15T00:46:03.737Z,16.25
2019-02-15T00:46:34.958Z,15.18
2019-02-15T00:47:06.179Z,16.52
2019-02-15T00:47:37.391Z,15.72
2019-02-15T00:48:08.605Z,15.68
2019-02-15T00:48:39.813Z,17.45
2019-02-15T00:49:11.049Z,15.45
2019-02-15T00:49:42.268Z,15.05
2019-02-15T00:50:13.526Z,15.98
2019-02-15T00:50:44.744Z,16.23
2019-02-15T00:51:15.960Z,17.07
2019-02-15T00:51:47.159Z,18.12
2019-02-15T00:52:18.379Z,17.15
2019-02-15T00:52:49.639Z,16.60
2019-02-15T00:53:20.858Z,17.10
2019-02-15T00:53:52.057Z,15.50
2019-02-15T00:54:23.286Z,17.65
2019-02-15T00:54:54.525Z,16.90
2019-02-15T00:55:25.725Z,16.95
2019-02-15T00:55:56.933Z,17.82
2019-02-15T00:56:28.141Z,17.85
2019-02-15T00:56:59.342Z,16.73
2019-02-15T00:57:30.544Z,17.42
2019-02-15T00:58:01.820Z,17.10
2019-02-15T00:58:33.033Z,16.55
2019-02-15T00:59:04.250Z,16.40
2019-02-15T00:59:35.470Z,17.12
2019-02-15T01:00:06.667Z,16.60
2019-02-15T01:00:37.893Z,16.73
2019-02-15T01:01:09.106Z,15.63
2019-02-15T01:01:40.326Z,17.85
2019-02-15T01:02:11.561Z,15.75
2019-02-15T01:02:42.762Z,16.62
2019-02-15T01:03:14.046Z,16.73
2019-02-15T01:03:45.251Z,15.88
2019-02-15T01:04:16.469Z,14.85
2019-02-15T01:04:47.676Z,16.93
2019-02-15T01:05:18.914Z,16.45
2019-02-15T01:05:50.086Z,15.75
2019-02-15T01:06:21.292Z,14.90
2019-02-15T01:06:52.515Z,15.08
2019-02-15T01:07:23.754Z,15.65
2019-02-15T01:07:55.007Z,15.08
2019-02-15T01:08:26.217Z,15.40
2019-02-15T01:08:57.469Z,16.82
2019-02-15T01:09:28.644Z,18.00
2019-02-15T01:09:59.867Z,16.80
2019-02-15T01:10:31.084Z,19.65
2019-02-15T01:11:02.334Z,18.23
2019-02-15T01:11:33.570Z,19.42
2019-02-15T01:12:04.778Z,20.00
2019-02-15T01:12:36.053Z,19.32
2019-02-15T01:13:07.247Z,19.62
2019-02-15T01:13:38.375Z,20.80
2019-02-15T01:14:09.594Z,20.08
2019-02-15T01:14:40.798Z,21.75
2019-02-15T01:15:12.018Z,22.48
2019-02-15T01:15:43.279Z,22.42
2019-02-15T01:16:14.491Z,22.48
2019-02-15T01:16:45.859Z,21.65
2019-02-15T01:17:17.071Z,21.93
2019-02-15T01:17:48.303Z,22.37
2019-02-15T01:18:19.541Z,21.87
2019-02-15T01:18:50.798Z,22.07
2019-02-15T01:19:22.019Z,22.90
2019-02-15T01:19:53.231Z,21.52
2019-02-15T01:20:24.441Z,20.70
2019-02-15T01:20:55.649Z,21.57
2019-02-15T01:21:26.861Z,21.57
2019-02-15T01:21:58.074Z,22.67
2019-02-15T01:22:29.285Z,19.20
2019-02-15T01:23:00.497Z,21.37
2019-02-15T01:23:31.748Z,21.20
2019-02-15T01:24:02.971Z,18.20
2019-02-15T01:24:34.180Z,19.90
2019-02-15T01:25:05.427Z,18.60
2019-02-15T01:25:36.660Z,18.85
2019-02-15T01:26:07.868Z,21.97
2019-02-15T01:26:39.093Z,18.40
2019-02-15T01:27:10.329Z,19.10
2019-02-15T01:27:41.534Z,17.95
2019-02-15T01:28:12.768Z,18.10
2019-02-15T01:28:43.978Z,18.12
2019-02-15T01:29:15.413Z,19.95
2019-02-15T01:29:46.671Z,18.12
2019-02-15T01:30:17.913Z,18.17
2019-02-15T01:30:49.186Z,18.67
2019-02-15T01:31:20.392Z,17.95
2019-02-15T01:31:51.647Z,17.25
2019-02-15T01:32:22.896Z,17.05
2019-02-15T01:32:54.130Z,17.65
2019-02-15T01:33:25.318Z,16.80
2019-02-15T01:33:56.541Z,16.60
2019-02-15T01:34:27.752Z,15.85
2019-02-15T01:34:58.950Z,17.48
2019-02-15T01:35:30.184Z,16.57
2019-02-15T01:36:01.409Z,17.42
2019-02-15T01:36:32.613Z,16.00
2019-02-15T01:37:03.831Z,15.70
2019-02-15T01:37:35.042Z,16.65
2019-02-15T01:38:06.251Z,16.60
2019-02-15T01:38:37.509Z,16.20
2019-02-15T01:39:09.036Z,15.93
2019-02-15T01:39:40.252Z,16.20
2019-02-15T01:40:11.482Z,15.20
2019-02-15T01:40:42.696Z,16.37
2019-02-15T01:41:13.953Z,15.30
2019-02-15T01:41:45.162Z,14.78
2019-02-15T01:42:16.394Z,15.23
2019-02-15T01:42:47.612Z,15.03
2019-02-15T01:43:18.871Z,14.28
2019-02-15T01:43:50.164Z,15.08
2019-02-15T01:44:21.440Z,15.00
2019-02-15T01:44:52.645Z,15.75
2019-02-15T01:45:23.873Z,15.38
2019-02-15T01:45:55.076Z,15.40
2019-02-15T01:46:26.291Z,14.10
2019-02-15T01:46:57.599Z,15.72
2019-02-15T01:47:28.850Z,16.75
2019-02-15T01:48:00.035Z,14.78
2019-02-15T01:48:31.280Z,15.53
2019-02-15T01:49:02.491Z,16.60
2019-02-15T01:49:33.698Z,15.65
2019-02-15T01:50:04.917Z,16.05
2019-02-15T01:50:36.127Z,15.98
2019-02-15T01:51:07.392Z,16.50
2019-02-15T01:51:38.618Z,16.15
2019-02-15T01:52:09.936Z,15.72
2019-02-15T01:52:41.193Z,16.95
2019-02-15T01:53:12.413Z,16.05
2019-02-15T01:53:43.632Z,15.40
2019-02-15T01:54:14.866Z,16.45
2019-02-15T01:54:46.092Z,16.70
2019-02-15T01:55:17.305Z,16.42
2019-02-15T01:55:48.521Z,16.97
2019-02-15T01:56:19.805Z,17.50
2019-02-15T01:56:51.020Z,15.95
2019-02-15T01:57:22.231Z,17.70
2019-02-15T01:57:53.443Z,16.62
2019-02-15T01:58:24.709Z,15.75
2019-02-15T01:58:55.968Z,16.55
2019-02-15T01:59:27.182Z,15.43
2019-02-15T01:59:58.416Z,16.60
2019-02-15T02:00:29.624Z,16.20
2019-02-15T02:01:00.887Z,16.20
2019-02-15T02:01:32.079Z,15.75
2019-02-15T02:02:03.314Z,18.23
2019-02-15T02:02:34.576Z,15.53
2019-02-15T02:03:05.821Z,17.92
2019-02-15T02:03:37.129Z,16.27
2019-02-15T02:04:10.390Z,16.50
2019-02-15T02:04:41.597Z,17.45
2019-02-15T02:05:12.824Z,17.07
2019-02-15T02:05:44.019Z,17.05
2019-02-15T02:06:15.231Z,17.27
2019-02-15T02:06:46.442Z,16.20
2019-02-15T02:07:17.668Z,17.48
2019-02-15T02:07:48.905Z,16.97
2019-02-15T02:08:20.181Z,16.93
2019-02-15T02:08:51.397Z,17.40
2019-02-15T02:09:22.603Z,17.57
2019-02-15T02:09:53.817Z,17.30
2019-02-15T02:10:25.035Z,18.48
2019-02-15T02:10:56.240Z,17.35
2019-02-15T02:11:27.449Z,19.70
2019-02-15T02:11:58.669Z,17.67
2019-02-15T02:12:29.879Z,17.00
2019-02-15T02:13:01.090Z,18.42
2019-02-15T02:13:32.335Z,16.77
2019-02-15T02:14:03.598Z,16.52
2019-02-15T02:14:34.832Z,16.50
2019-02-15T02:15:06.087Z,17.75
2019-02-15T02:15:37.301Z,18.37
2019-02-15T02:16:08.520Z,20.05
2019-02-15T02:16:39.776Z,17.15
2019-02-15T02:17:10.967Z,18.82
2019-02-15T02:17:42.229Z,18.60
2019-02-15T02:18:13.409Z,17.32
2019-02-15T02:18:44.617Z,18.07
2019-02-15T02:19:15.828Z,17.15
2019-02-15T02:19:47.051Z,17.10
2019-02-15T02:20:18.316Z,17.35
2019-02-15T02:20:49.547Z,17.73
2019-02-15T02:21:20.803Z,17.62
2019-02-15T02:21:52.023Z,20.95
2019-02-15T02:22:23.231Z,18.55
2019-02-15T02:22:54.443Z,17.55
2019-02-15T02:23:25.651Z,18.90
2019-02-15T02:23:56.861Z,17.73
2019-02-15T02:24:28.081Z,18.77
2019-02-15T02:24:59.288Z,18.90
2019-02-15T02:25:30.500Z,19.05
2019-02-15T02:26:01.760Z,17.85
2019-02-15T02:26:32.971Z,17.80
2019-02-15T02:27:04.183Z,20.37
2019-02-15T02:27:35.392Z,19.90
2019-02-15T02:28:06.609Z,18.27
2019-02-15T02:28:37.830Z,19.05
2019-02-15T02:29:09.116Z,21.35
2019-02-15T02:29:40.324Z,18.42
2019-02-15T02:30:11.536Z,18.55
2019-02-15T02:30:42.753Z,20.82
2019-02-15T02:31:14.046Z,19.20
2019-02-15T02:31:45.274Z,19.92
2019-02-15T02:32:16.478Z,18.57
2019-02-15T02:32:47.713Z,18.90
2019-02-15T02:33:18.920Z,20.12
2019-02-15T02:33:50.129Z,17.95
2019-02-15T02:34:21.351Z,19.40
2019-02-15T02:34:52.567Z,19.52
2019-02-15T02:35:23.829Z,19.65
2019-02-15T02:35:55.036Z,17.52
2019-02-15T02:36:26.323Z,20.08
2019-02-15T02:36:57.538Z,19.67
2019-02-15T02:37:28.749Z,21.57
2019-02-15T02:37:59.970Z,18.87
2019-02-15T02:38:31.173Z,18.80
2019-02-15T02:39:02.394Z,18.20
2019-02-15T02:39:33.650Z,18.70
2019-02-15T02:40:04.863Z,18.02
2019-02-15T02:40:36.074Z,18.77
2019-02-15T02:41:07.283Z,19.67
2019-02-15T02:41:38.521Z,18.37
2019-02-15T02:42:09.760Z,19.20
2019-02-15T02:42:41.029Z,18.07
2019-02-15T02:43:12.330Z,18.12
2019-02-15T02:43:43.729Z,19.37
2019-02-15T02:44:14.960Z,19.00
2019-02-15T02:44:46.184Z,19.48
2019-02-15T02:45:17.393Z,18.30
2019-02-15T02:45:48.605Z,19.30
2019-02-15T02:46:19.869Z,21.25
2019-02-15T02:46:51.070Z,19.35
2019-02-15T02:47:22.279Z,19.60
2019-02-15T02:47:53.493Z,18.82
2019-02-15T02:48:24.724Z,17.77
2019-02-15T02:48:55.918Z,18.02
2019-02-15T02:49:27.134Z,17.73
2019-02-15T02:49:58.346Z,18.42
2019-02-15T02:50:29.553Z,17.55
2019-02-15T02:51:00.822Z,20.00
2019-02-15T02:51:32.107Z,20.72
2019-02-15T02:52:03.325Z,19.35
2019-02-15T02:52:34.536Z,18.67
2019-02-15T02:53:07.051Z,22.22
2019-02-15T02:53:38.408Z,19.30
2019-02-15T02:54:09.824Z,20.17
2019-02-15T02:54:41.174Z,18.42
2019-02-15T02:55:12.486Z,18.80
2019-02-15T02:55:43.717Z,19.23
2019-02-15T02:56:14.933Z,18.77
2019-02-15T02:56:46.138Z,18.48
2019-02-15T02:57:17.415Z,19.02
2019-02-15T02:57:48.620Z,19.98
2019-02-15T02:58:19.852Z,19.23
2019-02-15T02:58:51.072Z,20.43
2019-02-15T02:59:22.276Z,19.35
2019-02-15T02:59:53.500Z,19.57
2019-02-15T03:00:33.236Z,20.02
2019-02-15T03:00:57.663Z,19.15
2019-02-15T03:01:28.925Z,19.90
2019-02-15T03:02:00.283Z,20.30
2019-02-15T03:02:31.535Z,18.77
2019-02-15T03:03:02.803Z,20.92
2019-02-15T03:03:34.038Z,20.23
2019-02-15T03:04:05.248Z,18.82
2019-02-15T03:04:36.465Z,18.80
2019-02-15T03:05:07.677Z,19.50
2019-02-15T03:05:38.885Z,19.42
2019-02-15T03:06:10.108Z,20.43
2019-02-15T03:06:41.325Z,19.12
2019-02-15T03:07:12.824Z,18.98
2019-02-15T03:07:44.629Z,17.75
2019-02-15T03:08:15.924Z,19.48
2019-02-15T03:08:47.136Z,17.77
2019-02-15T03:09:18.343Z,20.08
2019-02-15T03:09:49.566Z,22.00
2019-02-15T03:10:20.758Z,20.60
2019-02-15T03:10:51.977Z,21.45
2019-02-15T03:11:23.235Z,23.40
2019-02-15T03:11:54.509Z,23.05
2019-02-15T03:12:25.900Z,24.45
2019-02-15T03:12:57.430Z,23.52
2019-02-15T03:13:28.693Z,22.48
2019-02-15T03:14:10.693Z,25.37
2019-02-15T03:14:35.120Z,24.50
2019-02-15T03:15:06.337Z,23.73
2019-02-15T03:15:37.531Z,25.85
2019-02-15T03:16:08.746Z,28.70
2019-02-15T03:16:39.965Z,29.52
2019-02-15T03:17:11.220Z,32.90
2019-02-15T03:17:42.500Z,30.57
2019-02-15T03:18:13.723Z,33.10
2019-02-15T03:18:44.956Z,29.07
2019-02-15T03:19:16.168Z,33.28
2019-02-15T03:19:47.388Z,31.12
2019-02-15T03:20:18.616Z,31.42
2019-02-15T03:20:49.817Z,32.88
2019-02-15T03:21:21.046Z,30.40
2019-02-15T03:21:52.317Z,29.40
2019-02-15T03:22:23.524Z,31.90
2019-02-15T03:22:54.742Z,26.93
2019-02-15T03:23:25.974Z,29.87
2019-02-15T03:23:57.172Z,29.18
2019-02-15T03:24:28.398Z,29.00
2019-02-15T03:24:59.608Z,28.80
2019-02-15T03:25:30.807Z,29.65
2019-02-15T03:26:02.023Z,30.72
2019-02-15T03:26:33.242Z,29.45
2019-02-15T03:27:04.477Z,30.82
2019-02-15T03:27:35.695Z,30.27
2019-02-15T03:28:06.895Z,29.55
2019-02-15T03:28:38.094Z,29.30
2019-02-15T03:29:09.308Z,28.67
2019-02-15T03:29:40.535Z,28.95
2019-02-15T03:30:11.790Z,31.52
2019-02-15T03:30:43.026Z,28.02
2019-02-15T03:31:14.290Z,29.48
2019-02-15T03:31:45.486Z,27.60
2019-02-15T03:32:16.702Z,27.15
2019-02-15T03:32:47.918Z,27.45
2019-02-15T03:33:22.101Z,27.30
2019-02-15T03:33:53.371Z,27.60
2019-02-15T03:34:24.581Z,26.57
2019-02-15T03:34:55.851Z,26.68
2019-02-15T03:35:27.068Z,29.02
2019-02-15T03:35:58.271Z,26.23
2019-02-15T03:36:29.486Z,27.02
2019-02-15T03:37:00.694Z,29.00
2019-02-15T03:37:31.953Z,27.73
2019-02-15T03:38:03.216Z,26.45
2019-02-15T03:38:34.417Z,29.07
2019-02-15T03:39:05.640Z,29.07
2019-02-15T03:39:36.860Z,28.25
2019-02-15T03:40:08.066Z,28.90
2019-02-15T03:40:39.323Z,28.45
2019-02-15T03:41:10.533Z,28.47
2019-02-15T03:41:41.750Z,28.70
2019-02-15T03:42:12.965Z,27.10
2019-02-15T03:42:44.204Z,27.50
2019-02-15T03:43:15.437Z,28.17
2019-02-15T03:43:46.640Z,28.90
2019-02-15T03:44:22.170Z,28.65
2019-02-15T03:44:50.787Z,29.45
2019-02-15T03:45:22.015Z,29.42
2019-02-15T03:45:53.202Z,27.90
2019-02-15T03:46:24.424Z,29.72
2019-02-15T03:46:55.656Z,29.82
2019-02-15T03:47:26.888Z,29.98
2019-02-15T03:47:58.083Z,33.00
2019-02-15T03:48:29.290Z,32.45
2019-02-15T03:49:00.507Z,32.38
2019-02-15T03:49:31.717Z,29.60
2019-02-15T03:50:04.844Z,27.85
2019-02-15T03:50:35.855Z,28.67
2019-02-15T03:51:07.052Z,28.75
2019-02-15T03:51:38.307Z,30.85
2019-02-15T03:52:09.523Z,31.42
2019-02-15T03:52:40.738Z,31.50
2019-02-15T03:53:11.940Z,30.32
2019-02-15T03:53:43.168Z,29.72
2019-02-15T03:54:14.410Z,30.37
2019-02-15T03:54:45.609Z,30.65
2019-02-15T03:55:16.817Z,29.65
2019-02-15T03:55:48.015Z,30.12
2019-02-15T03:56:19.257Z,29.27
2019-02-15T03:56:50.465Z,29.52
2019-02-15T03:57:21.668Z,30.40
2019-02-15T03:57:52.879Z,31.62
2019-02-15T03:58:24.105Z,30.62
2019-02-15T03:58:55.319Z,28.20
2019-02-15T03:59:26.540Z,30.27
2019-02-15T03:59:57.753Z,28.27
2019-02-15T04:00:28.979Z,27.98
2019-02-15T04:01:00.232Z,28.55
2019-02-15T04:01:31.564Z,27.95
2019-02-15T04:02:02.743Z,33.90
2019-02-15T04:02:33.944Z,29.52
2019-02-15T04:03:05.164Z,29.25
2019-02-15T04:03:36.384Z,29.02
2019-02-15T04:04:07.591Z,28.65
2019-02-15T04:04:38.792Z,31.57
2019-02-15T04:05:10.009Z,32.38
2019-02-15T04:05:41.205Z,30.82
2019-02-15T04:06:12.417Z,30.60
2019-02-15T04:06:43.699Z,33.90
2019-02-15T04:07:14.919Z,33.98
2019-02-15T04:07:46.114Z,31.87
2019-02-15T04:08:17.323Z,33.13
2019-02-15T04:08:48.522Z,31.77
2019-02-15T04:09:19.739Z,32.33
2019-02-15T04:09:51.658Z,31.97
2019-02-15T04:10:22.879Z,32.28
2019-02-15T04:10:54.091Z,29.98
2019-02-15T04:11:25.356Z,32.03
2019-02-15T04:11:56.563Z,32.30
2019-02-15T04:12:27.776Z,34.05
2019-02-15T04:12:59.004Z,31.77
2019-02-15T04:13:30.221Z,29.42
2019-02-15T04:14:01.457Z,33.00
2019-02-15T04:14:33.444Z,30.95
2019-02-15T04:15:04.820Z,31.97
2019-02-15T04:15:36.086Z,31.45
2019-02-15T04:16:07.321Z,32.83
2019-02-15T04:16:38.529Z,31.82
2019-02-15T04:17:09.728Z,35.20
2019-02-15T04:17:40.934Z,32.70
2019-02-15T04:18:12.143Z,31.52
2019-02-15T04:18:43.361Z,30.68
2019-02-15T04:19:14.629Z,32.17
2019-02-15T04:19:45.915Z,32.63
2019-02-15T04:20:17.190Z,31.10
2019-02-15T04:20:48.583Z,33.08
2019-02-15T04:21:19.769Z,31.65
2019-02-15T04:21:56.781Z,31.23
2019-02-15T04:22:33.319Z,35.90
2019-02-15T04:23:04.251Z,34.18
2019-02-15T04:23:35.506Z,32.45
2019-02-15T04:24:06.712Z,31.87
2019-02-15T04:24:37.928Z,34.25
2019-02-15T04:25:09.147Z,34.38
2019-02-15T04:25:40.357Z,29.95
2019-02-15T04:26:11.607Z,32.80
2019-02-15T04:26:42.819Z,35.55
2019-02-15T04:27:14.015Z,31.45
2019-02-15T04:27:45.224Z,32.35
2019-02-15T04:28:16.440Z,32.58
2019-02-15T04:28:47.678Z,33.95
2019-02-15T04:29:18.955Z,31.37
2019-02-15T04:29:50.171Z,31.87
2019-02-15T04:30:21.379Z,31.33
2019-02-15T04:30:52.583Z,34.85
2019-02-15T04:31:23.832Z,33.42
2019-02-15T04:31:55.000Z,32.17
2019-02-15T04:32:26.209Z,28.95
2019-02-15T04:32:57.855Z,28.73
2019-02-15T04:33:29.339Z,29.12
2019-02-15T04:34:00.606Z,29.35
2019-02-15T04:34:31.852Z,30.15
2019-02-15T04:35:03.167Z,30.85
2019-02-15T04:35:34.426Z,30.00
2019-02-15T04:36:05.638Z,31.60
2019-02-15T04:36:36.850Z,30.32
2019-02-15T04:37:08.049Z,28.52
2019-02-15T04:37:39.270Z,27.62
2019-02-15T04:38:10.469Z,28.27
2019-02-15T04:38:41.722Z,29.32
2019-02-15T04:39:12.949Z,31.65
2019-02-15T04:39:45.935Z,28.60
2019-02-15T04:40:17.173Z,30.80
2019-02-15T04:40:48.415Z,31.35
2019-02-15T04:41:19.699Z,32.73
2019-02-15T04:41:50.907Z,44.08
2019-02-15T04:42:22.165Z,60.88
2019-02-15T04:42:53.362Z,82.60
2019-02-15T04:43:24.562Z,92.10
2019-02-15T04:43:55.767Z,99.87
2019-02-15T04:44:26.983Z,95.35
2019-02-15T04:45:01.414Z,102.62
2019-02-15T04:45:32.675Z,173.28
2019-02-15T04:46:04.008Z,161.50
2019-02-15T04:46:35.218Z,164.00
2019-02-15T04:47:06.437Z,134.55
2019-02-15T04:47:37.643Z,78.37
2019-02-15T04:48:08.950Z,77.55
2019-02-15T04:48:40.265Z,70.72
2019-02-15T04:49:11.545Z,70.20
2019-02-15T04:49:42.806Z,70.60
2019-02-15T04:50:14.116Z,63.40
2019-02-15T04:50:45.437Z,48.28
2019-02-15T04:51:16.720Z,58.25
2019-02-15T04:51:47.983Z,62.00
2019-02-15T04:52:19.274Z,58.30
2019-02-15T04:52:50.604Z,89.20
2019-02-15T04:53:21.872Z,95.50
2019-02-15T04:53:53.257Z,96.70
2019-02-15T04:54:24.551Z,68.12
2019-02-15T04:54:55.837Z,88.97
2019-02-15T04:55:27.146Z,93.97
2019-02-15T04:55:58.535Z,69.53
2019-02-15T04:56:29.868Z,55.10
2019-02-15T04:57:01.206Z,52.78
2019-02-15T04:57:32.488Z,45.28
2019-02-15T04:58:03.833Z,36.65
2019-02-15T04:58:35.132Z,35.28
2019-02-15T04:59:06.421Z,29.42
2019-02-15T04:59:37.730Z,27.75
2019-02-15T05:00:09.019Z,25.02
2019-02-15T05:00:40.350Z,28.60
2019-02-15T05:01:11.643Z,26.70
2019-02-15T05:01:42.956Z,26.12
2019-02-15T05:02:14.254Z,25.48
2019-02-15T05:02:46.577Z,21.52
2019-02-15T05:03:19.501Z,22.77
2019-02-15T05:03:51.007Z,23.87
2019-02-15T05:04:22.271Z,24.70
2019-02-15T05:04:53.563Z,22.37
2019-02-15T05:05:24.903Z,24.95
2019-02-15T05:05:56.149Z,23.67
2019-02-15T05:06:27.479Z,24.15
2019-02-15T05:06:58.884Z,23.18
2019-02-15T05:07:30.217Z,22.35
2019-02-15T05:08:02.789Z,24.50
2019-02-15T05:08:34.257Z,28.32
2019-02-15T05:09:05.640Z,26.02
2019-02-15T05:09:36.919Z,23.57
2019-02-15T05:10:08.205Z,22.60
2019-02-15T05:10:39.484Z,25.72
2019-02-15T05:11:10.766Z,25.48
2019-02-15T05:11:42.065Z,23.38
2019-02-15T05:12:13.366Z,23.07
2019-02-15T05:12:44.664Z,24.95
2019-02-15T05:13:16.032Z,23.07
2019-02-15T05:13:47.330Z,21.33
2019-02-15T05:14:19.685Z,23.10
2019-02-15T05:14:53.409Z,22.30
2019-02-15T05:15:24.092Z,22.73
2019-02-15T05:15:55.355Z,21.23
2019-02-15T05:16:26.677Z,22.73
2019-02-15T05:16:57.967Z,21.65
2019-02-15T05:17:29.251Z,22.73
2019-02-15T05:18:00.685Z,22.75
2019-02-15T05:18:32.076Z,22.90
2019-02-15T05:19:03.468Z,20.60
2019-02-15T05:19:37.500Z,21.40
2019-02-15T05:20:08.895Z,23.65
2019-02-15T05:20:40.257Z,21.48
2019-02-15T05:21:12.974Z,19.77
2019-02-15T05:21:44.362Z,19.70
2019-02-15T05:22:15.713Z,21.37
2019-02-15T05:22:46.964Z,19.02
2019-02-15T05:23:18.298Z,20.12
2019-02-15T05:23:49.678Z,18.30
2019-02-15T05:24:20.986Z,19.12
2019-02-15T05:24:52.256Z,20.00
2019-02-15T05:25:23.575Z,18.05
2019-02-15T05:25:54.789Z,19.70
2019-02-15T05:26:26.107Z,18.00
2019-02-15T05:26:57.448Z,16.85
2019-02-15T05:27:30.096Z,18.40
2019-02-15T05:28:01.398Z,19.92
2019-02-15T05:28:32.687Z,20.00
2019-02-15T05:29:04.081Z,20.05
2019-02-15T05:29:38.517Z,17.50
2019-02-15T05:30:09.776Z,20.48
2019-02-15T05:30:41.124Z,20.27
2019-02-15T05:31:12.496Z,19.02
2019-02-15T05:31:43.792Z,19.50
2019-02-15T05:32:15.137Z,19.67
2019-02-15T05:32:46.377Z,18.73
2019-02-15T05:33:17.642Z,19.10
2019-02-15T05:33:48.963Z,18.25
2019-02-15T05:34:20.305Z,19.62
2019-02-15T05:34:51.610Z,18.95
2019-02-15T05:35:22.956Z,19.30
2019-02-15T05:35:54.202Z,18.75
2019-02-15T05:36:25.518Z,18.82
2019-02-15T05:36:56.843Z,19.60
2019-02-15T05:37:28.136Z,19.60
2019-02-15T05:37:59.454Z,18.50
2019-02-15T05:38:30.706Z,20.77
2019-02-15T05:39:02.041Z,19.42
2019-02-15T05:39:33.353Z,19.12
2019-02-15T05:40:04.693Z,19.77
2019-02-15T05:40:37.261Z,20.95
2019-02-15T05:41:08.562Z,20.10
2019-02-15T05:41:40.234Z,19.42
2019-02-15T05:42:11.543Z,21.17
2019-02-15T05:42:42.861Z,19.02
2019-02-15T05:43:14.133Z,20.77
2019-02-15T05:43:45.443Z,19.35
2019-02-15T05:44:16.729Z,19.48
2019-02-15T05:44:48.055Z,21.27
2019-02-15T05:45:19.363Z,19.52
2019-02-15T05:45:50.635Z,19.45
2019-02-15T05:46:21.945Z,19.77
2019-02-15T05:46:53.293Z,19.40
2019-02-15T05:47:24.691Z,21.40
2019-02-15T05:47:55.920Z,19.77
2019-02-15T05:48:27.230Z,19.48
2019-02-15T05:48:58.558Z,20.25
2019-02-15T05:49:29.925Z,20.75
2019-02-15T05:50:01.417Z,19.67
2019-02-15T05:50:32.770Z,21.17
2019-02-15T05:51:04.133Z,20.15
2019-02-15T05:51:35.445Z,21.55
2019-02-15T05:52:06.771Z,21.23
2019-02-15T05:52:38.100Z,21.27
2019-02-15T05:53:12.142Z,19.17
2019-02-15T05:53:43.502Z,20.35
2019-02-15T05:54:16.216Z,22.75
2019-02-15T05:54:47.618Z,23.00
2019-02-15T05:55:20.512Z,22.70
2019-02-15T05:55:51.917Z,20.72
2019-02-15T05:56:28.056Z,19.42
2019-02-15T05:56:58.911Z,19.40
2019-02-15T05:57:33.137Z,20.82
2019-02-15T05:58:07.382Z,19.52
2019-02-15T05:58:38.604Z,22.55
2019-02-15T05:59:09.998Z,22.42
2019-02-15T05:59:41.287Z,19.00
2019-02-15T06:00:12.554Z,21.25
2019-02-15T06:00:43.801Z,20.65
2019-02-15T06:01:15.021Z,19.77
2019-02-15T06:01:46.258Z,19.10
2019-02-15T06:02:17.755Z,19.52
2019-02-15T06:02:48.958Z,18.80
2019-02-15T06:03:20.282Z,19.05
2019-02-15T06:03:57.585Z,22.02
2019-02-15T06:04:24.462Z,21.37
2019-02-15T06:04:55.814Z,20.25
2019-02-15T06:05:27.109Z,20.05
2019-02-15T06:06:00.144Z,19.17
2019-02-15T06:06:32.472Z,18.10
2019-02-15T06:07:03.819Z,17.85
2019-02-15T06:07:35.082Z,17.87
2019-02-15T06:08:06.336Z,19.10
2019-02-15T06:08:37.573Z,18.42
2019-02-15T06:09:08.871Z,19.57
2019-02-15T06:09:40.278Z,21.37
2019-02-15T06:10:11.524Z,18.02
2019-02-15T06:10:42.794Z,18.57
2019-02-15T06:11:14.011Z,19.32
2019-02-15T06:11:45.215Z,18.85
2019-02-15T06:12:16.453Z,18.92
2019-02-15T06:12:47.736Z,18.50
2019-02-15T06:13:18.981Z,18.35
2019-02-15T06:13:50.150Z,23.00
2019-02-15T06:14:21.362Z,20.30
2019-02-15T06:14:52.754Z,18.62
2019-02-15T06:15:23.952Z,20.10
2019-02-15T06:15:55.202Z,18.10
2019-02-15T06:16:26.491Z,19.62
2019-02-15T06:16:57.702Z,19.15
2019-02-15T06:17:28.941Z,20.05
2019-02-15T06:18:00.186Z,20.43
2019-02-15T06:18:31.410Z,24.00
2019-02-15T06:19:02.677Z,23.38
2019-02-15T06:19:33.882Z,28.65
2019-02-15T06:20:05.120Z,24.37
2019-02-15T06:20:36.336Z,22.37
2019-02-15T06:21:07.570Z,23.77
2019-02-15T06:21:38.836Z,19.07
2019-02-15T06:22:10.645Z,19.75
2019-02-15T06:22:42.027Z,22.82
2019-02-15T06:23:13.236Z,23.07
2019-02-15T06:23:44.469Z,26.65
2019-02-15T06:24:15.680Z,24.43
2019-02-15T06:24:46.887Z,18.00
2019-02-15T06:25:18.112Z,21.57
2019-02-15T06:25:49.339Z,23.40
2019-02-15T06:26:20.607Z,28.27
2019-02-15T06:26:51.827Z,22.02
2019-02-15T06:27:23.034Z,20.72
2019-02-15T06:27:54.243Z,19.25
2019-02-15T06:28:25.447Z,21.87
2019-02-15T06:28:56.687Z,19.12
2019-02-15T06:29:27.928Z,20.00
2019-02-15T06:29:59.138Z,17.98
2019-02-15T06:30:30.400Z,20.45
2019-02-15T06:31:01.617Z,20.15
2019-02-15T06:31:32.835Z,20.32
2019-02-15T06:32:04.093Z,18.50
2019-02-15T06:32:35.279Z,19.77
2019-02-15T06:33:06.494Z,19.23
2019-02-15T06:33:37.759Z,18.75
2019-02-15T06:34:08.995Z,22.42
2019-02-15T06:34:40.198Z,21.33
2019-02-15T06:35:11.414Z,19.05
2019-02-15T06:35:42.696Z,20.70
2019-02-15T06:36:13.967Z,17.55
2019-02-15T06:36:45.168Z,19.50
2019-02-15T06:37:16.388Z,21.97
2019-02-15T06:37:47.661Z,21.50
2019-02-15T06:38:18.909Z,20.75
2019-02-15T06:38:50.128Z,20.50
2019-02-15T06:39:21.347Z,22.50
2019-02-15T06:39:52.579Z,29.90
2019-02-15T06:40:23.785Z,23.87
2019-02-15T06:40:54.990Z,20.32
2019-02-15T06:41:26.253Z,25.80
2019-02-15T06:41:57.499Z,19.12
2019-02-15T06:42:28.707Z,24.20
2019-02-15T06:42:59.981Z,21.30
2019-02-15T06:43:31.207Z,21.87